Time;durP1;ratioP1;P1;durP2;ratioP2;P2;SDS_P1;SDS_P2;PMS_P1;PMS_P2;Temp;Humidity;BMP_temperature;BMP_pressure;BME280_temperature;BME280_humidity;BME280_pressure;Samples;Min_cycle;Max_cycle;Signal;HPM_P1;HPM_P2
2022/04/14 00:00:05;;;;;;;7.65;3.70;;;11.60;99.90;;;;;;5053524;28;20017;-71
2022/04/14 00:02:30;;;;;;;4.78;3.33;;;11.50;99.90;;;;;;5053439;28;20040;-71
2022/04/14 00:04:56;;;;;;;6.07;4.10;;;11.50;99.90;;;;;;5052896;28;20029;-70
2022/04/14 00:07:22;;;;;;;9.80;4.25;;;11.40;99.90;;;;;;5053381;28;20024;-71
2022/04/14 00:09:48;;;;;;;6.35;4.22;;;11.40;99.90;;;;;;5052814;28;20051;-70
2022/04/14 00:12:13;;;;;;;7.13;3.90;;;11.40;99.90;;;;;;5052715;28;20037;-71
2022/04/14 00:14:39;;;;;;;6.78;4.15;;;11.40;99.90;;;;;;5052653;28;20510;-71
2022/04/14 00:17:05;;;;;;;7.50;4.18;;;11.30;99.90;;;;;;5053189;28;20048;-70
2022/04/14 00:19:31;;;;;;;10.05;4.15;;;11.30;99.90;;;;;;5054423;28;20021;-70
2022/04/14 00:21:56;;;;;;;7.22;4.10;;;11.30;99.90;;;;;;5053860;28;20462;-70
2022/04/14 00:24:22;;;;;;;6.03;3.63;;;11.30;99.90;;;;;;5054539;28;20086;-70
2022/04/14 00:26:48;;;;;;;5.32;3.53;;;11.20;99.90;;;;;;5053293;28;20493;-71
2022/04/14 00:29:13;;;;;;;3.92;3.15;;;11.20;99.90;;;;;;5054526;28;20028;-71
2022/04/14 00:31:39;;;;;;;9.48;3.88;;;11.20;99.90;;;;;;5053501;28;20025;-71
2022/04/14 00:34:05;;;;;;;6.10;3.03;;;11.10;99.90;;;;;;5053282;28;20055;-70
2022/04/14 00:36:33;;;;;;;5.72;3.55;;;11.10;99.90;;;;;;5053712;28;20044;-70
2022/04/14 00:38:59;;;;;;;7.35;3.88;;;11.00;99.90;;;;;;5053934;28;20052;-70
2022/04/14 00:41:24;;;;;;;7.18;4.10;;;11.00;99.90;;;;;;5053966;28;20024;-71
2022/04/14 00:43:52;;;;;;;5.28;3.90;;;11.00;99.90;;;;;;5053225;28;20041;-70
2022/04/14 00:46:18;;;;;;;7.95;4.53;;;10.90;99.90;;;;;;5053741;28;20025;-71
2022/04/14 00:48:44;;;;;;;6.50;4.15;;;10.90;99.90;;;;;;5053328;28;20025;-71
2022/04/14 00:51:10;;;;;;;7.90;4.63;;;10.90;99.90;;;;;;5053290;28;20094;-71
2022/04/14 00:53:37;;;;;;;7.43;4.75;;;10.90;99.90;;;;;;5052821;28;20422;-71
2022/04/14 00:56:04;;;;;;;9.40;4.78;;;10.80;99.90;;;;;;5053935;28;20048;-70
2022/04/14 00:58:30;;;;;;;11.32;5.43;;;10.80;99.90;;;;;;5053566;28;20115;-71
2022/04/14 01:00:56;;;;;;;10.45;5.18;;;10.90;99.90;;;;;;5053738;28;20071;-71
2022/04/14 01:03:22;;;;;;;9.13;4.57;;;10.80;99.90;;;;;;5054285;28;20445;-71
2022/04/14 01:05:48;;;;;;;7.85;4.75;;;10.80;99.90;;;;;;5053033;28;20159;-71
2022/04/14 01:08:17;;;;;;;5.47;4.20;;;10.80;99.90;;;;;;5053487;28;20457;-71
2022/04/14 01:10:48;;;;;;;6.72;3.70;;;10.80;99.90;;;;;;5051621;28;20029;-71
2022/04/14 01:13:15;;;;;;;8.95;4.28;;;10.80;99.90;;;;;;5053464;28;20508;-71
2022/04/14 01:15:41;;;;;;;5.72;4.50;;;10.80;99.90;;;;;;5052858;28;20139;-71
2022/04/14 01:18:07;;;;;;;8.57;4.82;;;10.80;99.90;;;;;;5053252;28;20482;-70
2022/04/14 01:20:33;;;;;;;8.75;4.88;;;10.90;99.90;;;;;;5052089;28;20039;-71
2022/04/14 01:23:03;;;;;;;9.35;4.68;;;10.90;99.90;;;;;;5052659;28;20033;-71
2022/04/14 01:25:29;;;;;;;7.78;4.65;;;10.90;99.90;;;;;;5052485;28;20117;-70
2022/04/14 01:27:55;;;;;;;6.60;4.47;;;10.90;99.90;;;;;;5052355;28;20615;-71
2022/04/14 01:30:22;;;;;;;8.80;4.57;;;10.80;99.90;;;;;;5053444;28;20036;-71
2022/04/14 01:32:48;;;;;;;12.93;5.47;;;10.80;99.90;;;;;;5052129;28;20037;-71
2022/04/14 01:35:14;;;;;;;8.10;4.75;;;10.80;99.90;;;;;;5052775;28;20021;-70
2022/04/14 01:37:40;;;;;;;8.90;5.28;;;10.70;99.90;;;;;;5052324;28;20028;-71
2022/04/14 01:40:07;;;;;;;12.38;6.07;;;10.80;99.90;;;;;;5052749;28;20466;-70
2022/04/14 01:42:34;;;;;;;9.50;5.10;;;10.80;99.90;;;;;;5052682;28;20084;-71
2022/04/14 01:44:59;;;;;;;8.60;5.03;;;10.70;99.90;;;;;;5052290;28;20028;-70
2022/04/14 01:47:25;;;;;;;5.28;4.30;;;10.70;99.90;;;;;;5052802;28;20536;-70
2022/04/14 01:49:51;;;;;;;8.05;4.82;;;10.60;99.90;;;;;;5052091;28;20025;-70
2022/04/14 01:52:18;;;;;;;7.55;4.28;;;10.60;99.90;;;;;;5051906;28;20053;-70
2022/04/14 01:54:43;;;;;;;8.98;4.63;;;10.50;99.90;;;;;;5052035;28;20072;-71
2022/04/14 01:57:09;;;;;;;10.43;5.00;;;10.50;99.90;;;;;;5052565;28;20056;-71
2022/04/14 01:59:35;;;;;;;9.48;4.82;;;10.50;99.90;;;;;;5052709;28;20025;-71
2022/04/14 02:02:00;;;;;;;8.82;4.70;;;10.50;99.90;;;;;;5052017;28;20021;-70
2022/04/14 02:04:26;;;;;;;6.68;4.80;;;10.40;99.90;;;;;;5052545;28;20071;-70
2022/04/14 02:06:52;;;;;;;9.02;5.25;;;10.40;99.90;;;;;;5051490;28;20051;-71
2022/04/14 02:09:17;;;;;;;10.40;4.93;;;10.40;99.90;;;;;;5052791;28;20043;-70
2022/04/14 02:11:43;;;;;;;8.95;4.70;;;10.40;99.90;;;;;;5051150;28;20473;-71
2022/04/14 02:14:09;;;;;;;8.65;4.70;;;10.30;99.90;;;;;;5052120;28;20029;-70
2022/04/14 02:16:34;;;;;;;8.02;4.35;;;10.30;99.90;;;;;;5052349;28;20462;-70
2022/04/14 02:19:00;;;;;;;7.45;4.70;;;10.30;99.90;;;;;;5052109;28;20108;-71
2022/04/14 02:21:25;;;;;;;9.45;4.40;;;10.20;99.90;;;;;;5052096;28;20524;-70
2022/04/14 02:23:51;;;;;;;6.15;3.90;;;10.20;99.90;;;;;;5050060;28;20087;-70
2022/04/14 02:26:17;;;;;;;5.78;4.00;;;10.10;99.90;;;;;;5052585;28;20431;-70
2022/04/14 02:28:43;;;;;;;5.93;4.32;;;10.10;99.90;;;;;;5051216;28;20036;-71
2022/04/14 02:31:09;;;;;;;8.95;4.95;;;10.00;99.90;;;;;;5051433;28;20112;-70
2022/04/14 02:33:34;;;;;;;7.55;3.97;;;10.00;99.90;;;;;;5051475;28;20044;-70
2022/04/14 02:36:00;;;;;;;7.65;4.18;;;9.90;99.90;;;;;;5051213;28;20489;-70
2022/04/14 02:38:25;;;;;;;8.05;4.50;;;9.90;99.90;;;;;;5051384;28;20033;-71
2022/04/14 02:40:51;;;;;;;7.05;3.80;;;9.80;99.90;;;;;;5051109;28;20375;-71
2022/04/14 02:43:17;;;;;;;9.13;4.40;;;9.80;99.90;;;;;;5051529;28;20068;-71
2022/04/14 02:45:42;;;;;;;5.72;3.95;;;9.80;99.90;;;;;;5049922;28;20039;-71
2022/04/14 02:48:08;;;;;;;7.20;4.50;;;9.70;99.90;;;;;;5052039;28;20462;-70
2022/04/14 02:50:34;;;;;;;7.53;4.25;;;9.70;99.90;;;;;;5051551;28;20037;-70
2022/04/14 02:52:59;;;;;;;6.97;4.07;;;9.70;99.90;;;;;;5050315;28;20113;-72
2022/04/14 02:55:25;;;;;;;6.57;4.05;;;9.60;99.90;;;;;;5052375;28;20116;-71
2022/04/14 02:57:50;;;;;;;7.88;4.45;;;9.60;99.90;;;;;;5050839;28;20398;-69
2022/04/14 03:00:17;;;;;;;7.65;4.30;;;9.70;99.90;;;;;;5051313;28;20032;-69
2022/04/14 03:02:43;;;;;;;10.50;5.22;;;9.60;99.90;;;;;;5049391;28;20033;-71
2022/04/14 03:05:09;;;;;;;7.68;4.45;;;9.60;99.90;;;;;;5051325;28;20036;-70
2022/04/14 03:07:35;;;;;;;9.18;4.43;;;9.50;99.90;;;;;;5051521;28;20517;-70
2022/04/14 03:10:03;;;;;;;8.77;4.57;;;9.60;99.90;;;;;;5051273;28;20035;-70
2022/04/14 03:12:42;;;;;;;10.85;4.50;;;9.60;99.90;;;;;;5051740;28;20032;-70
2022/04/14 03:15:08;;;;;;;9.00;4.50;;;9.60;99.90;;;;;;5050264;28;20120;-71
2022/04/14 03:17:34;;;;;;;10.48;4.88;;;9.60;99.90;;;;;;5051783;28;20156;-70
2022/04/14 03:20:00;;;;;;;8.27;5.25;;;9.60;99.90;;;;;;5050941;28;20029;-70
2022/04/14 03:22:25;;;;;;;8.45;4.80;;;9.60;99.90;;;;;;5051543;28;20041;-70
2022/04/14 03:24:54;;;;;;;8.98;5.20;;;9.60;99.90;;;;;;5050601;28;20036;-70
2022/04/14 03:27:19;;;;;;;10.20;4.70;;;9.50;99.90;;;;;;5051853;28;20087;-70
2022/04/14 03:29:45;;;;;;;13.23;5.53;;;9.50;99.90;;;;;;5050314;28;20053;-70
2022/04/14 03:32:11;;;;;;;8.90;5.13;;;9.50;99.90;;;;;;5051506;28;20025;-71
2022/04/14 03:34:36;;;;;;;12.27;5.78;;;9.50;99.90;;;;;;5051371;28;20033;-70
2022/04/14 03:37:02;;;;;;;11.65;5.20;;;9.50;99.90;;;;;;5051088;28;20521;-70
2022/04/14 03:39:28;;;;;;;12.00;5.38;;;9.50;99.90;;;;;;5051268;28;20025;-70
2022/04/14 03:41:53;;;;;;;14.02;6.15;;;9.50;99.90;;;;;;5050745;28;20029;-70
2022/04/14 03:44:19;;;;;;;14.25;6.38;;;9.50;99.90;;;;;;5051188;28;20040;-70
2022/04/14 03:46:44;;;;;;;14.20;5.75;;;9.60;99.90;;;;;;5050376;28;20100;-70
2022/04/14 03:49:11;;;;;;;9.77;5.40;;;9.60;99.90;;;;;;5051350;28;20475;-70
2022/04/14 03:51:37;;;;;;;9.48;5.18;;;9.60;99.90;;;;;;5050997;28;20140;-70
2022/04/14 03:54:03;;;;;;;12.45;6.35;;;9.60;99.90;;;;;;5049213;28;20045;-70
2022/04/14 03:56:29;;;;;;;8.98;6.28;;;9.60;99.90;;;;;;5050243;28;20360;-70
2022/04/14 03:58:54;;;;;;;11.43;5.85;;;9.60;99.90;;;;;;5050502;28;20029;-70
2022/04/14 04:01:20;;;;;;;10.77;6.40;;;9.60;99.90;;;;;;5050808;28;20174;-70
2022/04/14 04:03:45;;;;;;;14.85;6.28;;;9.60;99.90;;;;;;5050237;28;20532;-70
2022/04/14 04:06:11;;;;;;;11.98;7.40;;;9.50;99.90;;;;;;5051325;28;20075;-70
2022/04/14 04:08:36;;;;;;;12.38;7.22;;;9.50;99.90;;;;;;5051235;28;20025;-70
2022/04/14 04:11:02;;;;;;;10.82;6.25;;;9.50;99.90;;;;;;5050630;28;20502;-69
2022/04/14 04:13:28;;;;;;;11.00;6.70;;;9.50;99.90;;;;;;5054062;28;20033;-70
2022/04/14 04:15:53;;;;;;;16.33;8.73;;;9.40;99.90;;;;;;5053900;28;20032;-70
2022/04/14 04:18:19;;;;;;;13.93;7.50;;;9.40;99.90;;;;;;5054259;28;20470;-70
2022/04/14 04:20:45;;;;;;;11.68;6.70;;;9.40;99.90;;;;;;5053980;28;20043;-70
2022/04/14 04:23:11;;;;;;;15.13;8.15;;;9.40;99.90;;;;;;5054531;28;20029;-69
2022/04/14 04:25:36;;;;;;;14.32;8.30;;;9.30;99.90;;;;;;5054242;28;20104;-69
2022/04/14 04:28:02;;;;;;;15.02;7.97;;;9.30;99.90;;;;;;5053540;28;20672;-68
2022/04/14 04:30:28;;;;;;;12.05;7.63;;;9.20;99.90;;;;;;5054242;28;20128;-70
2022/04/14 04:32:54;;;;;;;16.27;8.70;;;9.20;99.90;;;;;;5053615;28;20036;-70
2022/04/14 04:35:19;;;;;;;15.23;9.30;;;9.20;99.90;;;;;;5054210;28;20528;-69
2022/04/14 04:37:45;;;;;;;15.88;10.15;;;9.10;99.90;;;;;;5052111;28;20078;-70
2022/04/14 04:40:11;;;;;;;22.98;10.85;;;9.10;99.90;;;;;;5054118;28;20040;-70
2022/04/14 04:42:36;;;;;;;17.30;10.75;;;9.10;99.90;;;;;;5052874;28;20033;-70
2022/04/14 04:45:02;;;;;;;14.00;9.93;;;9.10;99.90;;;;;;5053076;28;20035;-70
2022/04/14 04:47:28;;;;;;;15.35;9.50;;;9.10;99.90;;;;;;5053934;28;20112;-70
2022/04/14 04:49:53;;;;;;;21.50;11.40;;;9.10;99.90;;;;;;5053112;28;20154;-70
2022/04/14 04:52:19;;;;;;;20.95;11.48;;;9.10;99.90;;;;;;5053553;28;20455;-70
2022/04/14 04:54:45;;;;;;;18.80;12.32;;;9.10;99.90;;;;;;5053416;28;20029;-71
2022/04/14 04:57:10;;;;;;;19.40;12.57;;;9.10;99.90;;;;;;5053787;28;20390;-70
2022/04/14 04:59:36;;;;;;;17.13;11.95;;;9.20;99.90;;;;;;5054056;28;20029;-69
2022/04/14 05:02:02;;;;;;;21.05;12.70;;;9.20;99.90;;;;;;5052523;28;20454;-72
2022/04/14 05:04:28;;;;;;;18.95;12.75;;;9.20;99.90;;;;;;5052530;28;20470;-71
2022/04/14 05:06:53;;;;;;;18.02;12.52;;;9.30;99.90;;;;;;5052760;28;20041;-72
2022/04/14 05:09:20;;;;;;;21.50;14.73;;;9.30;99.90;;;;;;5053787;28;20399;-75
2022/04/14 05:11:45;;;;;;;26.88;16.48;;;9.40;99.90;;;;;;5052934;28;20029;-72
2022/04/14 05:14:11;;;;;;;21.80;14.98;;;9.50;99.90;;;;;;5053413;28;20033;-71
2022/04/14 05:16:37;;;;;;;22.23;14.43;;;9.50;99.90;;;;;;5053197;28;20033;-71
2022/04/14 05:19:02;;;;;;;22.95;15.13;;;9.60;99.90;;;;;;5052762;28;20016;-71
2022/04/14 05:21:28;;;;;;;27.38;16.73;;;9.70;99.90;;;;;;5053567;28;20108;-72
2022/04/14 05:23:54;;;;;;;28.13;16.48;;;9.80;99.90;;;;;;5052153;28;20037;-72
2022/04/14 05:26:20;;;;;;;30.13;17.58;;;9.90;99.90;;;;;;5052223;28;20020;-71
2022/04/14 05:28:46;;;;;;;27.92;17.90;;;9.90;99.90;;;;;;5052764;28;20036;-73
2022/04/14 05:31:11;;;;;;;29.02;18.25;;;10.10;99.90;;;;;;5053314;28;20029;-70
2022/04/14 05:33:37;;;;;;;32.90;18.35;;;10.10;99.90;;;;;;5052753;28;20378;-75
2022/04/14 05:36:03;;;;;;;29.75;17.98;;;10.30;99.90;;;;;;5052699;28;20031;-70
2022/04/14 05:38:29;;;;;;;42.20;19.92;;;10.30;99.90;;;;;;5052833;28;20021;-71
2022/04/14 05:40:55;;;;;;;28.48;17.73;;;10.50;99.90;;;;;;5052819;28;20386;-70
2022/04/14 05:43:24;;;;;;;28.27;16.42;;;10.60;99.90;;;;;;5053061;28;20025;-70
2022/04/14 05:45:50;;;;;;;31.55;15.63;;;10.70;99.90;;;;;;5051350;28;20481;-70
2022/04/14 05:48:17;;;;;;;22.27;14.82;;;10.80;99.90;;;;;;5052572;28;20029;-71
2022/04/14 05:50:46;;;;;;;23.35;13.48;;;10.90;99.90;;;;;;5052228;28;20075;-70
2022/04/14 05:53:12;;;;;;;31.05;15.27;;;11.10;99.90;;;;;;5051803;28;20039;-70
2022/04/14 05:55:39;;;;;;;23.88;16.13;;;11.20;99.90;;;;;;5052877;28;20040;-70
2022/04/14 05:58:05;;;;;;;22.83;14.13;;;11.30;99.90;;;;;;5052023;28;20079;-70
2022/04/14 06:00:32;;;;;;;30.90;19.25;;;11.50;99.90;;;;;;5052672;28;20033;-70
2022/04/14 06:02:59;;;;;;;36.33;22.65;;;11.60;99.90;;;;;;5051826;28;20044;-76
2022/04/14 06:05:29;;;;;;;30.67;20.90;;;11.70;99.90;;;;;;5053876;28;20029;-70
2022/04/14 06:07:55;;;;;;;30.90;19.00;;;11.80;99.90;;;;;;5050904;28;20033;-78
2022/04/14 06:10:22;;;;;;;48.22;28.95;;;12.00;99.90;;;;;;5050851;28;20106;-75
2022/04/14 06:12:48;;;;;;;40.55;26.63;;;12.10;99.90;;;;;;5052216;28;20115;-73
2022/04/14 06:15:13;;;;;;;44.38;26.20;;;12.30;99.90;;;;;;5053594;28;20048;-72
2022/04/14 06:17:40;;;;;;;32.65;23.42;;;12.40;99.90;;;;;;5053329;28;20036;-73
2022/04/14 06:20:06;;;;;;;38.85;26.02;;;12.50;99.90;;;;;;5050786;28;20064;-73
2022/04/14 06:22:37;;;;;;;39.67;26.30;;;12.70;99.90;;;;;;5052732;28;20049;-74
2022/04/14 06:25:03;;;;;;;38.20;26.35;;;12.90;99.90;;;;;;5051858;28;20029;-78
2022/04/14 06:27:29;;;;;;;38.05;25.77;;;13.00;99.90;;;;;;5052881;28;20036;-73
2022/04/14 06:29:55;;;;;;;41.55;24.65;;;13.30;99.90;;;;;;5051466;28;20029;-73
2022/04/14 06:32:20;;;;;;;35.83;25.02;;;13.30;99.90;;;;;;5051915;28;20074;-73
2022/04/14 06:34:46;;;;;;;35.42;24.58;;;13.40;99.90;;;;;;5050566;28;20037;-73
2022/04/14 06:37:12;;;;;;;37.17;24.63;;;13.50;99.90;;;;;;5052289;28;20025;-73
2022/04/14 06:39:37;;;;;;;39.88;26.13;;;13.70;99.90;;;;;;5052058;28;20401;-73
2022/04/14 06:42:03;;;;;;;36.30;26.08;;;13.80;99.90;;;;;;5050932;28;20032;-73
2022/04/14 06:44:29;;;;;;;39.90;25.98;;;13.90;99.90;;;;;;5052257;28;20029;-73
2022/04/14 06:46:54;;;;;;;44.70;27.83;;;14.10;99.90;;;;;;5050648;28;20025;-73
2022/04/14 06:49:21;;;;;;;45.42;26.77;;;14.10;99.90;;;;;;5052639;28;20459;-73
2022/04/14 06:51:46;;;;;;;45.05;25.42;;;14.20;99.90;;;;;;5051762;28;20059;-72
2022/04/14 06:54:12;;;;;;;40.13;23.00;;;14.30;99.90;;;;;;5051312;28;20028;-72
2022/04/14 06:56:39;;;;;;;40.80;26.58;;;14.30;99.90;;;;;;5051008;28;20556;-74
2022/04/14 06:59:04;;;;;;;38.85;24.90;;;14.40;99.90;;;;;;5050197;28;20036;-73
2022/04/14 07:01:30;;;;;;;31.08;23.73;;;14.50;99.90;;;;;;5049781;28;20048;-73
2022/04/14 07:03:56;;;;;;;30.45;23.00;;;14.50;99.90;;;;;;5049446;28;20541;-72
2022/04/14 07:06:21;;;;;;;38.40;23.63;;;14.60;99.90;;;;;;5051028;28;20078;-73
2022/04/14 07:08:47;;;;;;;32.58;21.35;;;14.80;99.90;;;;;;5050699;28;20098;-73
2022/04/14 07:11:13;;;;;;;31.95;20.58;;;15.00;99.90;;;;;;5050163;28;20108;-76
2022/04/14 07:13:39;;;;;;;31.60;22.02;;;15.00;99.90;;;;;;5051019;28;20033;-75
2022/04/14 07:16:04;;;;;;;28.10;19.98;;;15.10;99.90;;;;;;5049243;28;20025;-75
2022/04/14 07:18:30;;;;;;;33.35;20.50;;;15.20;99.90;;;;;;5050995;28;20359;-74
2022/04/14 07:20:56;;;;;;;31.17;19.50;;;15.40;99.90;;;;;;5048943;28;20036;-77
2022/04/14 07:23:21;;;;;;;26.83;19.58;;;15.50;99.90;;;;;;5053607;28;20025;-78
2022/04/14 07:25:47;;;;;;;26.88;20.23;;;15.60;99.90;;;;;;5050183;28;20134;-75
2022/04/14 07:28:14;;;;;;;34.40;21.02;;;15.60;99.90;;;;;;5051419;28;20032;-84
2022/04/14 07:30:40;;;;;;;30.13;20.73;;;15.60;99.90;;;;;;5051476;28;20018;-83
2022/04/14 07:33:06;;;;;;;34.45;21.92;;;15.60;99.90;;;;;;5057610;28;20035;-83
2022/04/14 07:35:32;;;;;;;33.35;20.42;;;15.70;99.90;;;;;;5060712;28;20112;-86
2022/04/14 07:37:58;;;;;;;31.10;21.08;;;15.90;99.90;;;;;;5060531;28;20212;-85
2022/04/14 07:40:25;;;;;;;32.33;20.88;;;15.90;99.90;;;;;;5052523;28;20021;-84
2022/04/14 07:42:51;;;;;;;30.38;20.52;;;15.90;99.90;;;;;;5049005;28;20029;-74
2022/04/14 07:45:17;;;;;;;26.70;18.05;;;15.90;99.90;;;;;;5049770;28;20053;-83
2022/04/14 07:47:44;;;;;;;28.65;19.15;;;15.90;99.90;;;;;;5054610;28;20116;-77
2022/04/14 07:50:19;;;;;;;33.80;21.92;;;16.00;99.90;;;;;;5055773;28;20032;-89
2022/04/14 07:52:50;;;;;;;29.83;21.25;;;16.20;99.90;;;;;;5060351;28;20040;-85
2022/04/14 07:55:20;;;;;;;30.50;20.63;;;16.20;99.90;;;;;;5055396;28;20118;-71
2022/04/14 07:57:46;;;;;;;32.55;20.95;;;16.30;99.90;;;;;;5055535;28;20033;-77
2022/04/14 08:00:12;;;;;;;28.73;20.00;;;16.40;99.90;;;;;;5053797;28;20024;-75
2022/04/14 08:02:58;;;;;;;29.70;18.67;;;16.50;99.90;;;;;;5054227;28;20032;-72
2022/04/14 08:05:33;;;;;;;26.55;18.83;;;16.60;99.90;;;;;;5051667;28;20482;-79
2022/04/14 08:08:00;;;;;;;24.55;17.23;;;16.70;99.90;;;;;;5052779;28;20238;-78
2022/04/14 08:10:26;;;;;;;29.50;18.27;;;16.70;99.90;;;;;;5056724;28;20029;-83
2022/04/14 08:12:53;;;;;;;26.70;18.45;;;16.80;99.90;;;;;;5055788;28;20033;-77
2022/04/14 08:15:19;;;;;;;25.45;17.30;;;16.80;99.90;;;;;;5054966;28;20025;-72
2022/04/14 08:17:46;;;;;;;27.08;18.42;;;16.90;99.90;;;;;;5054881;28;20033;-72
2022/04/14 08:20:13;;;;;;;29.85;17.00;;;17.00;99.90;;;;;;5052410;28;20039;-75
2022/04/14 08:23:06;;;;;;;28.58;19.35;;;17.00;99.90;;;;;;5053348;28;20440;-71
2022/04/14 08:25:34;;;;;;;24.50;17.45;;;17.10;99.90;;;;;;5054294;28;20124;-69
2022/04/14 08:28:02;;;;;;;23.52;17.10;;;17.20;99.90;;;;;;5057460;28;20031;-73
2022/04/14 08:30:30;;;;;;;26.13;18.17;;;17.30;99.90;;;;;;5053810;28;20500;-76
2022/04/14 08:32:59;;;;;;;25.63;17.00;;;17.40;99.90;;;;;;5033196;28;20068;-73
2022/04/14 08:35:26;;;;;;;28.40;18.33;;;17.40;99.90;;;;;;5034268;28;20026;-73
2022/04/14 08:37:52;;;;;;;26.17;18.42;;;17.40;99.90;;;;;;5035639;28;20013;-75
2022/04/14 08:40:21;;;;;;;31.08;18.85;;;17.40;99.90;;;;;;5053862;28;20029;-72
2022/04/14 08:43:04;;;;;;;25.17;16.98;;;17.50;99.90;;;;;;5053630;28;20029;-73
2022/04/14 08:45:32;;;;;;;22.23;15.82;;;17.50;99.90;;;;;;5053660;28;20025;-73
2022/04/14 08:48:03;;;;;;;29.23;18.45;;;17.60;99.90;;;;;;5052471;28;20032;-72
2022/04/14 08:50:30;;;;;;;29.20;18.55;;;17.70;99.90;;;;;;5053024;28;20419;-73
2022/04/14 08:52:56;;;;;;;20.20;16.23;;;17.60;99.90;;;;;;5052667;28;20147;-74
2022/04/14 08:55:23;;;;;;;29.70;17.38;;;17.60;99.90;;;;;;5053187;28;20017;-74
2022/04/14 08:57:49;;;;;;;20.75;16.05;;;17.60;99.90;;;;;;5053573;28;20029;-79
2022/04/14 09:00:16;;;;;;;30.45;18.50;;;17.70;99.90;;;;;;5052790;28;20053;-74
2022/04/14 09:02:46;;;;;;;30.02;17.38;;;17.70;99.90;;;;;;5052632;28;20389;-73
2022/04/14 09:05:13;;;;;;;20.73;15.63;;;17.80;99.90;;;;;;5052213;28;20024;-76
2022/04/14 09:07:39;;;;;;;27.42;16.42;;;17.80;99.90;;;;;;5052451;28;20260;-75
2022/04/14 09:10:06;;;;;;;28.20;15.70;;;17.70;99.90;;;;;;5048959;28;20029;-73
2022/04/14 09:12:32;;;;;;;22.90;16.15;;;17.70;99.90;;;;;;5052722;28;20581;-77
2022/04/14 09:15:00;;;;;;;24.20;17.70;;;17.80;99.90;;;;;;5053980;28;20043;-76
2022/04/14 09:17:27;;;;;;;25.33;17.60;;;17.90;99.90;;;;;;5052834;28;20032;-78
2022/04/14 09:19:53;;;;;;;23.13;18.15;;;18.10;99.90;;;;;;5052121;28;20483;-81
2022/04/14 09:22:20;;;;;;;25.33;16.35;;;18.20;99.90;;;;;;5051610;28;20127;-78
2022/04/14 09:24:51;;;;;;;24.05;17.25;;;18.20;99.90;;;;;;5052729;28;20033;-79
2022/04/14 09:27:31;;;;;;;25.52;16.98;;;18.40;99.90;;;;;;5052242;28;20036;-80
2022/04/14 09:29:59;;;;;;;26.02;16.60;;;18.50;99.90;;;;;;5052041;28;20028;-78
2022/04/14 09:32:30;;;;;;;23.45;16.77;;;18.50;99.90;;;;;;5052773;28;20031;-81
2022/04/14 09:34:57;;;;;;;27.42;17.30;;;18.60;99.90;;;;;;5051184;28;20056;-79
2022/04/14 09:37:24;;;;;;;21.80;14.88;;;18.60;99.90;;;;;;5058264;28;20454;-80
2022/04/14 09:40:08;;;;;;;27.27;17.00;;;18.70;99.90;;;;;;5052221;28;20114;-76
2022/04/14 09:42:35;;;;;;;19.88;12.95;;;18.80;99.90;;;;;;5052546;28;20037;-78
2022/04/14 09:45:25;;;;;;;26.75;14.90;;;18.90;99.90;;;;;;5050853;28;20025;-77
2022/04/14 09:47:52;;;;;;;21.02;14.02;;;19.10;99.90;;;;;;5052350;28;20074;-76
2022/04/14 09:50:35;;;;;;;29.67;15.82;;;19.20;99.90;;;;;;5051987;28;20059;-77
2022/04/14 09:53:20;;;;;;;27.42;16.50;;;19.30;99.90;;;;;;5051153;28;20041;-76
2022/04/14 09:55:52;;;;;;;26.55;18.85;;;19.50;99.90;;;;;;5051020;28;20033;-77
2022/04/14 09:58:19;;;;;;;22.27;16.88;;;19.50;99.90;;;;;;5051486;28;20047;-77
2022/04/14 10:00:50;;;;;;;21.60;13.98;;;19.60;99.90;;;;;;5060392;28;20047;-78
2022/04/14 10:03:24;;;;;;;21.90;16.80;;;19.70;99.90;;;;;;5059050;28;20029;-75
2022/04/14 10:05:54;;;;;;;18.55;13.10;;;19.90;99.90;;;;;;5053947;28;20057;-76
2022/04/14 10:08:20;;;;;;;23.58;15.70;;;20.10;99.90;;;;;;5051901;28;20458;-76
2022/04/14 10:10:47;;;;;;;24.55;16.65;;;20.20;98.50;;;;;;5053356;28;20051;-76
2022/04/14 10:13:18;;;;;;;28.83;16.73;;;20.20;98.10;;;;;;5051545;28;20063;-76
2022/04/14 10:15:46;;;;;;;23.17;16.08;;;20.30;98.10;;;;;;5051288;28;20079;-76
2022/04/14 10:18:16;;;;;;;22.35;15.35;;;20.30;97.90;;;;;;5052692;28;20627;-76
2022/04/14 10:20:43;;;;;;;;;;;20.30;96.70;;;;;;5052843;28;20043;-77
2022/04/14 10:23:11;;;;;;;25.17;15.55;;;20.40;97.00;;;;;;5050451;28;20004;-72
2022/04/14 10:25:38;;;;;;;23.05;15.75;;;20.50;96.70;;;;;;5051124;28;20040;-72
2022/04/14 10:28:09;;;;;;;27.67;16.77;;;20.60;96.40;;;;;;5049585;28;20108;-72
2022/04/14 10:30:35;;;;;;;20.38;14.40;;;20.50;95.50;;;;;;5051177;28;20025;-73
2022/04/14 10:33:00;;;;;;;19.02;14.45;;;20.50;95.70;;;;;;5050490;28;20087;-73
2022/04/14 10:35:29;;;;;;;24.35;15.90;;;20.70;94.80;;;;;;5051878;28;20021;-72
2022/04/14 10:38:15;;;;;;;24.77;16.27;;;20.70;95.40;;;;;;5050622;28;20031;-73
2022/04/14 10:40:55;;;;;;;20.95;14.18;;;20.70;95.00;;;;;;5051080;28;20024;-72
2022/04/14 10:43:23;;;;;;;23.47;14.50;;;20.80;94.30;;;;;;5049650;28;20039;-73
2022/04/14 10:45:53;;;;;;;22.42;13.70;;;20.90;94.80;;;;;;5050680;28;20033;-72
2022/04/14 10:48:30;;;;;;;23.50;12.52;;;20.80;93.20;;;;;;5050547;28;20033;-75
2022/04/14 10:51:23;;;;;;;28.23;16.88;;;21.00;93.80;;;;;;5049909;28;20049;-72
2022/04/14 10:53:59;;;;;;;22.27;15.10;;;21.00;93.00;;;;;;5050754;28;20037;-74
2022/04/14 10:56:33;;;;;;;22.63;13.55;;;21.00;92.60;;;;;;5051398;28;20060;-76
2022/04/14 10:59:00;;;;;;;20.70;13.07;;;20.90;92.10;;;;;;5050751;28;20060;-75
2022/04/14 11:01:47;;;;;;;19.05;13.10;;;21.10;92.70;;;;;;5052178;28;20055;-76
2022/04/14 11:04:36;;;;;;;19.48;13.13;;;21.20;90.10;;;;;;5050462;28;20141;-74
2022/04/14 11:07:15;;;;;;;22.60;13.95;;;21.30;90.10;;;;;;5037427;28;20032;-76
2022/04/14 11:10:00;;;;;;;21.75;14.63;;;21.30;90.00;;;;;;5050612;28;20475;-76
2022/04/14 11:12:41;;;;;;;32.83;16.23;;;21.30;89.70;;;;;;5051434;28;20466;-75
2022/04/14 11:15:08;;;;;;;19.13;13.88;;;21.50;90.00;;;;;;5051507;28;20032;-79
2022/04/14 11:18:16;;;;;;;22.20;12.10;;;21.50;89.30;;;;;;5045902;28;20035;-80
2022/04/14 11:20:45;;;;;;;20.58;12.27;;;21.70;90.40;;;;;;5049966;28;20041;-82
2022/04/14 11:23:15;;;;;;;19.35;12.80;;;21.90;87.10;;;;;;5043669;28;20449;-82
2022/04/14 11:28:19;;;;;;;17.25;12.82;;;22.30;85.00;;;;;;5056284;28;19909;-81
2022/04/14 11:30:45;;;;;;;16.63;11.52;;;22.30;85.50;;;;;;5056038;28;20115;-79
2022/04/14 11:33:21;;;;;;;20.88;13.98;;;22.40;83.60;;;;;;5054450;28;20119;-83
2022/04/14 11:35:47;;;;;;;20.58;14.18;;;22.60;83.70;;;;;;5054994;28;20104;-77
2022/04/14 11:38:51;;;;;;;16.20;10.98;;;22.60;84.70;;;;;;5057326;28;20105;-74
2022/04/14 11:41:37;;;;;;;18.27;11.23;;;22.80;82.70;;;;;;5053803;28;20655;-81
2022/04/14 11:44:13;;;;;;;26.05;15.32;;;23.20;80.50;;;;;;5054034;28;20032;-79
2022/04/14 11:46:50;;;;;;;22.83;16.08;;;23.60;78.10;;;;;;5055132;28;20036;-81
2022/04/14 11:49:19;;;;;;;24.33;14.88;;;23.40;79.70;;;;;;5058479;28;20029;-79
2022/04/14 11:51:50;;;;;;;21.33;15.40;;;23.30;78.60;;;;;;5055191;28;20049;-83
2022/04/14 11:54:33;;;;;;;20.55;14.05;;;23.10;79.60;;;;;;5053018;28;20288;-79
2022/04/14 11:57:07;;;;;;;23.45;14.30;;;23.10;80.20;;;;;;5054943;28;20040;-80
2022/04/14 11:59:44;;;;;;;23.45;13.95;;;23.20;78.70;;;;;;5055301;28;20029;-75
2022/04/14 12:02:21;;;;;;;29.23;14.25;;;23.30;78.10;;;;;;5054279;28;20032;-75
2022/04/14 12:04:55;;;;;;;21.95;15.73;;;23.30;77.20;;;;;;5054687;28;20029;-75
2022/04/14 12:07:22;;;;;;;17.35;14.30;;;23.10;77.70;;;;;;5054153;28;20044;-80
2022/04/14 12:09:58;;;;;;;17.23;13.07;;;23.20;77.70;;;;;;5044980;28;20112;-71
2022/04/14 12:12:24;;;;;;;19.00;13.18;;;23.30;77.60;;;;;;5035155;28;20021;-69
2022/04/14 12:14:52;;;;;;;27.52;16.40;;;23.40;78.00;;;;;;5041673;28;20021;-70
2022/04/14 12:17:22;;;;;;;25.75;16.15;;;23.60;76.30;;;;;;5053994;28;20155;-72
2022/04/14 12:19:58;;;;;;;22.55;16.80;;;23.80;75.30;;;;;;5054617;28;20047;-75
2022/04/14 12:22:27;;;;;;;26.27;15.65;;;23.30;76.10;;;;;;5054631;28;20083;-75
2022/04/14 12:24:55;;;;;;;16.90;13.40;;;23.10;77.80;;;;;;5057930;28;20419;-79
2022/04/14 12:27:26;;;;;;;19.95;14.00;;;23.00;79.50;;;;;;5054370;28;20470;-78
2022/04/14 12:29:57;;;;;;;22.85;15.15;;;23.10;79.30;;;;;;5054999;28;20021;-75
2022/04/14 12:32:27;;;;;;;22.30;14.50;;;23.00;78.70;;;;;;5053093;28;20083;-75
2022/04/14 12:34:53;;;;;;;21.27;14.68;;;23.00;78.20;;;;;;5054237;28;20059;-75
2022/04/14 12:37:19;;;;;;;18.40;14.10;;;23.20;77.60;;;;;;5053426;28;20082;-76
2022/04/14 12:39:59;;;;;;;23.48;15.07;;;23.40;77.60;;;;;;5054491;28;20029;-75
2022/04/14 12:42:33;;;;;;;24.35;15.13;;;23.80;76.80;;;;;;5053951;28;20405;-73